sensor_id;sensor_type;location;lat;lon;timestamp;P1;durP1;ratioP1;P2;durP2;ratioP2
62951;SDS011;52163;52.212;-1.002;2023-03-23T00:01:57;7.00;;;1.50;;
62951;SDS011;52163;52.212;-1.002;2023-03-23T00:04:23;2.60;;;1.00;;
62951;SDS011;52163;52.212;-1.002;2023-03-23T00:06:51;3.80;;;1.00;;
62951;SDS011;52163;52.212;-1.002;2023-03-23T00:09:17;5.90;;;1.00;;
62951;SDS011;52163;52.212;-1.002;2023-03-23T00:11:48;6.80;;;1.70;;
62951;SDS011;52163;52.212;-1.002;2023-03-23T00:14:15;4.90;;;1.00;;
62951;SDS011;52163;52.212;-1.002;2023-03-23T00:16:41;4.70;;;1.00;;
62951;SDS011;52163;52.212;-1.002;2023-03-23T00:19:10;6.70;;;1.80;;
62951;SDS011;52163;52.212;-1.002;2023-03-23T00:21:40;11.60;;;2.40;;
62951;SDS011;52163;52.212;-1.002;2023-03-23T00:24:10;8.90;;;2.00;;
62951;SDS011;52163;52.212;-1.002;2023-03-23T00:26:42;8.30;;;1.70;;
62951;SDS011;52163;52.212;-1.002;2023-03-23T00:29:14;8.70;;;2.00;;
62951;SDS011;52163;52.212;-1.002;2023-03-23T00:31:42;9.60;;;1.80;;
62951;SDS011;52163;52.212;-1.002;2023-03-23T00:34:12;5.00;;;1.90;;
62951;SDS011;52163;52.212;-1.002;2023-03-23T00:36:44;8.20;;;1.70;;
62951;SDS011;52163;52.212;-1.002;2023-03-23T00:39:11;8.90;;;2.00;;
62951;SDS011;52163;52.212;-1.002;2023-03-23T00:41:37;9.80;;;2.00;;
62951;SDS011;52163;52.212;-1.002;2023-03-23T00:44:03;10.80;;;2.40;;
62951;SDS011;52163;52.212;-1.002;2023-03-23T00:46:29;11.40;;;2.00;;
62951;SDS011;52163;52.212;-1.002;2023-03-23T00:48:55;7.70;;;1.80;;
62951;SDS011;52163;52.212;-1.002;2023-03-23T00:51:22;9.50;;;2.20;;
62951;SDS011;52163;52.212;-1.002;2023-03-23T00:53:49;8.70;;;1.60;;
62951;SDS011;52163;52.212;-1.002;2023-03-23T00:56:15;7.80;;;1.50;;
62951;SDS011;52163;52.212;-1.002;2023-03-23T00:58:41;7.00;;;1.50;;
62951;SDS011;52163;52.212;-1.002;2023-03-23T01:01:06;7.80;;;1.50;;
62951;SDS011;52163;52.212;-1.002;2023-03-23T01:03:33;5.50;;;1.30;;
62951;SDS011;52163;52.212;-1.002;2023-03-23T01:06:04;8.20;;;1.40;;
62951;SDS011;52163;52.212;-1.002;2023-03-23T01:08:38;5.80;;;1.10;;
62951;SDS011;52163;52.212;-1.002;2023-03-23T01:11:14;9.60;;;1.80;;
62951;SDS011;52163;52.212;-1.002;2023-03-23T01:13:41;9.40;;;1.60;;
62951;SDS011;52163;52.212;-1.002;2023-03-23T01:16:08;7.60;;;1.50;;
62951;SDS011;52163;52.212;-1.002;2023-03-23T01:18:35;10.00;;;1.50;;
62951;SDS011;52163;52.212;-1.002;2023-03-23T01:21:05;8.50;;;1.60;;
62951;SDS011;52163;52.212;-1.002;2023-03-23T01:23:32;10.40;;;1.50;;
62951;SDS011;52163;52.212;-1.002;2023-03-23T01:26:02;8.90;;;1.40;;
62951;SDS011;52163;52.212;-1.002;2023-03-23T01:28:37;7.40;;;1.60;;
62951;SDS011;52163;52.212;-1.002;2023-03-23T01:31:03;9.00;;;1.70;;
62951;SDS011;52163;52.212;-1.002;2023-03-23T01:33:33;5.90;;;1.40;;
62951;SDS011;52163;52.212;-1.002;2023-03-23T01:36:03;4.30;;;1.20;;
62951;SDS011;52163;52.212;-1.002;2023-03-23T01:38:30;8.80;;;1.80;;
62951;SDS011;52163;52.212;-1.002;2023-03-23T01:40:56;10.50;;;2.10;;
62951;SDS011;52163;52.212;-1.002;2023-03-23T01:43:22;6.50;;;1.10;;
62951;SDS011;52163;52.212;-1.002;2023-03-23T01:45:47;10.00;;;2.40;;
62951;SDS011;52163;52.212;-1.002;2023-03-23T01:48:17;5.40;;;1.10;;
62951;SDS011;52163;52.212;-1.002;2023-03-23T01:50:50;6.40;;;1.10;;
62951;SDS011;52163;52.212;-1.002;2023-03-23T01:53:20;3.80;;;1.40;;
62951;SDS011;52163;52.212;-1.002;2023-03-23T01:55:49;5.40;;;1.30;;
62951;SDS011;52163;52.212;-1.002;2023-03-23T01:58:23;6.80;;;1.20;;
62951;SDS011;52163;52.212;-1.002;2023-03-23T02:00:55;7.00;;;1.70;;
62951;SDS011;52163;52.212;-1.002;2023-03-23T02:03:27;2.50;;;1.10;;
62951;SDS011;52163;52.212;-1.002;2023-03-23T02:05:56;4.00;;;1.00;;
62951;SDS011;52163;52.212;-1.002;2023-03-23T02:08:23;3.90;;;0.90;;
62951;SDS011;52163;52.212;-1.002;2023-03-23T02:10:53;6.90;;;1.80;;
62951;SDS011;52163;52.212;-1.002;2023-03-23T02:13:19;5.90;;;1.40;;
62951;SDS011;52163;52.212;-1.002;2023-03-23T02:15:47;9.40;;;1.80;;
62951;SDS011;52163;52.212;-1.002;2023-03-23T02:18:26;10.50;;;1.50;;
62951;SDS011;52163;52.212;-1.002;2023-03-23T02:27:00;11.20;;;1.60;;
62951;SDS011;52163;52.212;-1.002;2023-03-23T02:29:32;8.00;;;1.70;;
62951;SDS011;52163;52.212;-1.002;2023-03-23T02:32:12;7.30;;;1.70;;
62951;SDS011;52163;52.212;-1.002;2023-03-23T02:34:56;4.30;;;1.20;;
62951;SDS011;52163;52.212;-1.002;2023-03-23T02:37:30;8.80;;;1.70;;
62951;SDS011;52163;52.212;-1.002;2023-03-23T02:40:04;8.80;;;1.80;;
62951;SDS011;52163;52.212;-1.002;2023-03-23T02:42:33;11.80;;;1.90;;
62951;SDS011;52163;52.212;-1.002;2023-03-23T02:45:02;8.90;;;1.60;;
62951;SDS011;52163;52.212;-1.002;2023-03-23T02:47:31;14.30;;;1.90;;
62951;SDS011;52163;52.212;-1.002;2023-03-23T02:49:58;5.70;;;1.40;;
62951;SDS011;52163;52.212;-1.002;2023-03-23T02:52:28;8.80;;;2.20;;
62951;SDS011;52163;52.212;-1.002;2023-03-23T02:54:56;9.60;;;1.80;;
62951;SDS011;52163;52.212;-1.002;2023-03-23T02:57:27;8.90;;;1.80;;
62951;SDS011;52163;52.212;-1.002;2023-03-23T02:59:53;6.70;;;2.00;;
62951;SDS011;52163;52.212;-1.002;2023-03-23T03:02:27;6.20;;;1.50;;
62951;SDS011;52163;52.212;-1.002;2023-03-23T03:10:36;12.10;;;2.30;;
62951;SDS011;52163;52.212;-1.002;2023-03-23T03:13:14;10.40;;;1.90;;
62951;SDS011;52163;52.212;-1.002;2023-03-23T03:15:46;10.30;;;1.90;;
62951;SDS011;52163;52.212;-1.002;2023-03-23T03:18:20;10.50;;;2.00;;
62951;SDS011;52163;52.212;-1.002;2023-03-23T03:20:51;10.70;;;1.90;;
62951;SDS011;52163;52.212;-1.002;2023-03-23T03:23:21;10.70;;;1.70;;
62951;SDS011;52163;52.212;-1.002;2023-03-23T03:25:49;8.40;;;1.40;;
62951;SDS011;52163;52.212;-1.002;2023-03-23T03:28:16;11.30;;;2.00;;
62951;SDS011;52163;52.212;-1.002;2023-03-23T03:30:46;15.30;;;2.70;;
62951;SDS011;52163;52.212;-1.002;2023-03-23T03:33:14;9.80;;;1.70;;
62951;SDS011;52163;52.212;-1.002;2023-03-23T03:35:42;11.60;;;2.60;;
62951;SDS011;52163;52.212;-1.002;2023-03-23T03:38:10;10.30;;;1.80;;
62951;SDS011;52163;52.212;-1.002;2023-03-23T03:40:37;11.70;;;2.40;;
62951;SDS011;52163;52.212;-1.002;2023-03-23T03:43:03;10.10;;;2.30;;
62951;SDS011;52163;52.212;-1.002;2023-03-23T03:45:29;13.10;;;2.60;;
62951;SDS011;52163;52.212;-1.002;2023-03-23T03:47:55;14.90;;;1.80;;
62951;SDS011;52163;52.212;-1.002;2023-03-23T03:50:20;11.10;;;1.50;;
62951;SDS011;52163;52.212;-1.002;2023-03-23T03:52:46;12.40;;;3.00;;
62951;SDS011;52163;52.212;-1.002;2023-03-23T03:55:12;12.60;;;2.00;;
62951;SDS011;52163;52.212;-1.002;2023-03-23T03:57:37;14.80;;;2.40;;
62951;SDS011;52163;52.212;-1.002;2023-03-23T04:00:04;10.00;;;2.00;;
62951;SDS011;52163;52.212;-1.002;2023-03-23T04:02:44;6.80;;;1.90;;
62951;SDS011;52163;52.212;-1.002;2023-03-23T04:05:19;7.90;;;2.30;;
62951;SDS011;52163;52.212;-1.002;2023-03-23T04:07:45;14.70;;;2.60;;
62951;SDS011;52163;52.212;-1.002;2023-03-23T04:10:14;12.60;;;2.70;;
62951;SDS011;52163;52.212;-1.002;2023-03-23T04:12:40;10.90;;;2.20;;
62951;SDS011;52163;52.212;-1.002;2023-03-23T04:15:06;9.20;;;1.90;;
62951;SDS011;52163;52.212;-1.002;2023-03-23T04:17:33;10.60;;;2.10;;
62951;SDS011;52163;52.212;-1.002;2023-03-23T04:19:59;11.40;;;2.50;;
62951;SDS011;52163;52.212;-1.002;2023-03-23T04:22:27;11.30;;;2.30;;
62951;SDS011;52163;52.212;-1.002;2023-03-23T04:24:58;16.00;;;3.10;;
62951;SDS011;52163;52.212;-1.002;2023-03-23T04:27:27;7.60;;;1.90;;
62951;SDS011;52163;52.212;-1.002;2023-03-23T04:29:54;11.00;;;1.90;;
62951;SDS011;52163;52.212;-1.002;2023-03-23T04:32:23;11.80;;;2.40;;
62951;SDS011;52163;52.212;-1.002;2023-03-23T04:34:50;14.00;;;2.50;;
62951;SDS011;52163;52.212;-1.002;2023-03-23T04:37:15;17.10;;;2.30;;
62951;SDS011;52163;52.212;-1.002;2023-03-23T04:39:41;14.60;;;2.50;;
62951;SDS011;52163;52.212;-1.002;2023-03-23T04:42:10;11.80;;;2.20;;
62951;SDS011;52163;52.212;-1.002;2023-03-23T04:44:36;10.60;;;2.40;;
62951;SDS011;52163;52.212;-1.002;2023-03-23T04:47:01;7.30;;;1.90;;
62951;SDS011;52163;52.212;-1.002;2023-03-23T04:49:27;9.60;;;1.90;;
62951;SDS011;52163;52.212;-1.002;2023-03-23T04:51:55;9.50;;;1.90;;
62951;SDS011;52163;52.212;-1.002;2023-03-23T04:54:21;12.90;;;2.40;;
62951;SDS011;52163;52.212;-1.002;2023-03-23T04:56:47;18.20;;;2.70;;
62951;SDS011;52163;52.212;-1.002;2023-03-23T04:59:13;10.40;;;2.50;;
62951;SDS011;52163;52.212;-1.002;2023-03-23T05:01:40;20.70;;;3.00;;
62951;SDS011;52163;52.212;-1.002;2023-03-23T05:04:10;15.10;;;3.10;;
62951;SDS011;52163;52.212;-1.002;2023-03-23T05:06:35;9.00;;;2.10;;
62951;SDS011;52163;52.212;-1.002;2023-03-23T05:09:01;8.70;;;2.50;;
62951;SDS011;52163;52.212;-1.002;2023-03-23T05:11:26;10.30;;;2.20;;
62951;SDS011;52163;52.212;-1.002;2023-03-23T05:13:51;8.00;;;2.10;;
62951;SDS011;52163;52.212;-1.002;2023-03-23T05:16:17;12.10;;;2.30;;
62951;SDS011;52163;52.212;-1.002;2023-03-23T05:18:42;10.40;;;1.90;;
62951;SDS011;52163;52.212;-1.002;2023-03-23T05:21:08;10.50;;;2.40;;
62951;SDS011;52163;52.212;-1.002;2023-03-23T05:23:34;12.00;;;2.40;;
62951;SDS011;52163;52.212;-1.002;2023-03-23T05:26:00;15.30;;;2.80;;
62951;SDS011;52163;52.212;-1.002;2023-03-23T05:28:28;16.20;;;3.60;;
62951;SDS011;52163;52.212;-1.002;2023-03-23T05:30:55;16.90;;;2.30;;
62951;SDS011;52163;52.212;-1.002;2023-03-23T05:33:21;9.80;;;2.10;;
62951;SDS011;52163;52.212;-1.002;2023-03-23T05:35:47;13.20;;;2.60;;
62951;SDS011;52163;52.212;-1.002;2023-03-23T05:38:13;15.00;;;3.40;;
62951;SDS011;52163;52.212;-1.002;2023-03-23T05:40:39;17.00;;;2.20;;
62951;SDS011;52163;52.212;-1.002;2023-03-23T05:43:07;15.90;;;2.40;;
62951;SDS011;52163;52.212;-1.002;2023-03-23T05:45:33;17.20;;;3.30;;
62951;SDS011;52163;52.212;-1.002;2023-03-23T05:47:59;13.70;;;2.60;;
62951;SDS011;52163;52.212;-1.002;2023-03-23T05:50:25;17.20;;;3.00;;
62951;SDS011;52163;52.212;-1.002;2023-03-23T05:52:52;13.40;;;2.60;;
62951;SDS011;52163;52.212;-1.002;2023-03-23T05:55:19;15.40;;;2.40;;
62951;SDS011;52163;52.212;-1.002;2023-03-23T05:57:44;16.70;;;3.70;;
62951;SDS011;52163;52.212;-1.002;2023-03-23T06:00:10;12.80;;;2.70;;
62951;SDS011;52163;52.212;-1.002;2023-03-23T06:02:38;16.70;;;2.60;;
62951;SDS011;52163;52.212;-1.002;2023-03-23T06:05:05;11.50;;;3.30;;
62951;SDS011;52163;52.212;-1.002;2023-03-23T06:07:31;10.00;;;2.40;;
62951;SDS011;52163;52.212;-1.002;2023-03-23T06:09:57;21.50;;;3.10;;
62951;SDS011;52163;52.212;-1.002;2023-03-23T06:12:22;10.20;;;2.30;;
62951;SDS011;52163;52.212;-1.002;2023-03-23T06:14:49;14.30;;;2.50;;
62951;SDS011;52163;52.212;-1.002;2023-03-23T06:17:15;12.60;;;2.20;;
62951;SDS011;52163;52.212;-1.002;2023-03-23T06:19:42;10.40;;;2.40;;
62951;SDS011;52163;52.212;-1.002;2023-03-23T06:22:09;9.70;;;2.70;;
62951;SDS011;52163;52.212;-1.002;2023-03-23T06:24:35;11.50;;;2.60;;
62951;SDS011;52163;52.212;-1.002;2023-03-23T06:27:01;10.70;;;2.80;;
62951;SDS011;52163;52.212;-1.002;2023-03-23T06:29:26;15.60;;;2.30;;
62951;SDS011;52163;52.212;-1.002;2023-03-23T06:31:54;12.20;;;2.50;;
62951;SDS011;52163;52.212;-1.002;2023-03-23T06:34:23;16.80;;;2.50;;
62951;SDS011;52163;52.212;-1.002;2023-03-23T06:36:49;12.90;;;2.30;;
62951;SDS011;52163;52.212;-1.002;2023-03-23T06:39:15;15.60;;;2.10;;
62951;SDS011;52163;52.212;-1.002;2023-03-23T06:41:40;13.60;;;2.50;;
62951;SDS011;52163;52.212;-1.002;2023-03-23T06:44:06;15.40;;;3.00;;
62951;SDS011;52163;52.212;-1.002;2023-03-23T06:46:33;17.00;;;2.90;;
62951;SDS011;52163;52.212;-1.002;2023-03-23T06:48:59;12.40;;;2.90;;
62951;SDS011;52163;52.212;-1.002;2023-03-23T06:51:24;14.60;;;3.00;;
62951;SDS011;52163;52.212;-1.002;2023-03-23T06:53:49;16.70;;;2.40;;
62951;SDS011;52163;52.212;-1.002;2023-03-23T06:56:15;18.30;;;2.90;;
62951;SDS011;52163;52.212;-1.002;2023-03-23T06:58:41;13.50;;;2.20;;
62951;SDS011;52163;52.212;-1.002;2023-03-23T07:01:07;13.00;;;2.60;;
62951;SDS011;52163;52.212;-1.002;2023-03-23T07:03:33;10.40;;;1.90;;
62951;SDS011;52163;52.212;-1.002;2023-03-23T07:05:59;17.80;;;3.10;;
62951;SDS011;52163;52.212;-1.002;2023-03-23T07:08:24;14.00;;;2.50;;
62951;SDS011;52163;52.212;-1.002;2023-03-23T07:10:52;18.30;;;2.40;;
62951;SDS011;52163;52.212;-1.002;2023-03-23T07:13:18;17.60;;;3.00;;
62951;SDS011;52163;52.212;-1.002;2023-03-23T07:15:44;15.60;;;3.00;;
62951;SDS011;52163;52.212;-1.002;2023-03-23T07:18:10;13.90;;;2.60;;
62951;SDS011;52163;52.212;-1.002;2023-03-23T07:20:36;13.80;;;2.80;;
62951;SDS011;52163;52.212;-1.002;2023-03-23T07:23:02;15.20;;;3.20;;
62951;SDS011;52163;52.212;-1.002;2023-03-23T07:25:30;10.10;;;2.50;;
62951;SDS011;52163;52.212;-1.002;2023-03-23T07:27:57;19.30;;;3.00;;
62951;SDS011;52163;52.212;-1.002;2023-03-23T07:30:23;12.50;;;2.60;;
62951;SDS011;52163;52.212;-1.002;2023-03-23T07:32:49;14.50;;;3.10;;
62951;SDS011;52163;52.212;-1.002;2023-03-23T07:35:15;17.70;;;2.70;;
62951;SDS011;52163;52.212;-1.002;2023-03-23T07:37:41;19.30;;;3.00;;
62951;SDS011;52163;52.212;-1.002;2023-03-23T07:40:07;17.70;;;3.40;;
62951;SDS011;52163;52.212;-1.002;2023-03-23T07:42:33;13.70;;;2.20;;
62951;SDS011;52163;52.212;-1.002;2023-03-23T07:44:59;18.60;;;3.10;;
62951;SDS011;52163;52.212;-1.002;2023-03-23T07:47:24;18.60;;;4.00;;
62951;SDS011;52163;52.212;-1.002;2023-03-23T07:49:49;14.00;;;3.00;;
62951;SDS011;52163;52.212;-1.002;2023-03-23T07:52:15;18.80;;;3.50;;
62951;SDS011;52163;52.212;-1.002;2023-03-23T07:54:40;16.80;;;3.10;;
62951;SDS011;52163;52.212;-1.002;2023-03-23T07:57:06;18.50;;;3.50;;
62951;SDS011;52163;52.212;-1.002;2023-03-23T07:59:31;14.70;;;3.10;;
62951;SDS011;52163;52.212;-1.002;2023-03-23T08:01:57;18.20;;;2.90;;
62951;SDS011;52163;52.212;-1.002;2023-03-23T08:04:23;19.10;;;4.10;;
62951;SDS011;52163;52.212;-1.002;2023-03-23T08:06:48;19.00;;;3.40;;
62951;SDS011;52163;52.212;-1.002;2023-03-23T08:09:14;23.80;;;3.40;;
62951;SDS011;52163;52.212;-1.002;2023-03-23T08:11:40;19.50;;;2.80;;
62951;SDS011;52163;52.212;-1.002;2023-03-23T08:14:06;17.20;;;3.20;;
62951;SDS011;52163;52.212;-1.002;2023-03-23T08:16:32;18.00;;;3.00;;
62951;SDS011;52163;52.212;-1.002;2023-03-23T08:18:58;21.80;;;3.30;;
62951;SDS011;52163;52.212;-1.002;2023-03-23T08:21:23;12.70;;;2.90;;
62951;SDS011;52163;52.212;-1.002;2023-03-23T08:23:49;20.10;;;2.70;;
62951;SDS011;52163;52.212;-1.002;2023-03-23T08:26:14;17.70;;;3.50;;
62951;SDS011;52163;52.212;-1.002;2023-03-23T08:28:41;15.60;;;3.20;;
62951;SDS011;52163;52.212;-1.002;2023-03-23T08:31:09;16.30;;;3.50;;
62951;SDS011;52163;52.212;-1.002;2023-03-23T08:33:36;18.60;;;3.00;;
62951;SDS011;52163;52.212;-1.002;2023-03-23T08:36:03;12.20;;;3.10;;
62951;SDS011;52163;52.212;-1.002;2023-03-23T08:38:29;12.70;;;2.90;;
62951;SDS011;52163;52.212;-1.002;2023-03-23T08:41:02;12.00;;;3.60;;
62951;SDS011;52163;52.212;-1.002;2023-03-23T08:43:30;15.80;;;3.60;;
62951;SDS011;52163;52.212;-1.002;2023-03-23T08:45:58;18.50;;;3.40;;
62951;SDS011;52163;52.212;-1.002;2023-03-23T08:48:24;13.90;;;3.10;;
62951;SDS011;52163;52.212;-1.002;2023-03-23T08:50:49;17.10;;;3.70;;
62951;SDS011;52163;52.212;-1.002;2023-03-23T08:53:17;19.00;;;3.20;;
62951;SDS011;52163;52.212;-1.002;2023-03-23T08:55:43;10.60;;;2.40;;
62951;SDS011;52163;52.212;-1.002;2023-03-23T08:58:09;13.90;;;3.10;;
62951;SDS011;52163;52.212;-1.002;2023-03-23T09:00:35;12.10;;;2.10;;
62951;SDS011;52163;52.212;-1.002;2023-03-23T09:03:01;13.40;;;2.90;;
62951;SDS011;52163;52.212;-1.002;2023-03-23T09:05:27;18.20;;;3.20;;
62951;SDS011;52163;52.212;-1.002;2023-03-23T09:07:54;11.90;;;2.60;;
62951;SDS011;52163;52.212;-1.002;2023-03-23T09:10:24;16.50;;;2.70;;
62951;SDS011;52163;52.212;-1.002;2023-03-23T09:12:55;13.70;;;2.30;;
62951;SDS011;52163;52.212;-1.002;2023-03-23T09:15:21;9.60;;;2.20;;
62951;SDS011;52163;52.212;-1.002;2023-03-23T09:17:48;9.70;;;2.20;;
62951;SDS011;52163;52.212;-1.002;2023-03-23T09:20:17;11.70;;;3.00;;
62951;SDS011;52163;52.212;-1.002;2023-03-23T09:22:46;9.30;;;2.40;;
62951;SDS011;52163;52.212;-1.002;2023-03-23T09:25:15;12.00;;;2.80;;
62951;SDS011;52163;52.212;-1.002;2023-03-23T09:27:46;13.60;;;3.40;;
62951;SDS011;52163;52.212;-1.002;2023-03-23T09:30:18;12.90;;;4.20;;
62951;SDS011;52163;52.212;-1.002;2023-03-23T09:32:46;10.60;;;2.50;;
62951;SDS011;52163;52.212;-1.002;2023-03-23T09:35:13;13.40;;;2.40;;
62951;SDS011;52163;52.212;-1.002;2023-03-23T09:37:41;9.50;;;2.20;;
62951;SDS011;52163;52.212;-1.002;2023-03-23T09:40:14;9.50;;;2.20;;
62951;SDS011;52163;52.212;-1.002;2023-03-23T09:45:50;10.30;;;2.10;;
62951;SDS011;52163;52.212;-1.002;2023-03-23T09:48:36;8.60;;;2.10;;
62951;SDS011;52163;52.212;-1.002;2023-03-23T09:51:15;6.10;;;1.70;;
62951;SDS011;52163;52.212;-1.002;2023-03-23T09:53:44;10.80;;;2.20;;
62951;SDS011;52163;52.212;-1.002;2023-03-23T09:56:15;9.20;;;2.10;;
62951;SDS011;52163;52.212;-1.002;2023-03-23T10:03:40;8.10;;;2.10;;
62951;SDS011;52163;52.212;-1.002;2023-03-23T10:06:09;10.40;;;2.10;;
62951;SDS011;52163;52.212;-1.002;2023-03-23T10:08:39;7.40;;;2.10;;
62951;SDS011;52163;52.212;-1.002;2023-03-23T10:11:14;9.60;;;1.70;;
62951;SDS011;52163;52.212;-1.002;2023-03-23T10:16:28;10.10;;;2.20;;
62951;SDS011;52163;52.212;-1.002;2023-03-23T10:19:08;14.10;;;2.70;;
62951;SDS011;52163;52.212;-1.002;2023-03-23T10:21:44;12.70;;;2.70;;
62951;SDS011;52163;52.212;-1.002;2023-03-23T10:24:19;12.20;;;2.60;;
62951;SDS011;52163;52.212;-1.002;2023-03-23T10:27:13;14.60;;;3.20;;
62951;SDS011;52163;52.212;-1.002;2023-03-23T10:30:02;8.30;;;2.00;;
62951;SDS011;52163;52.212;-1.002;2023-03-23T10:32:53;9.70;;;2.10;;
62951;SDS011;52163;52.212;-1.002;2023-03-23T10:37:58;12.00;;;2.90;;
62951;SDS011;52163;52.212;-1.002;2023-03-23T10:40:27;12.30;;;2.40;;
62951;SDS011;52163;52.212;-1.002;2023-03-23T10:42:55;9.80;;;2.30;;
62951;SDS011;52163;52.212;-1.002;2023-03-23T10:45:27;9.70;;;2.10;;
62951;SDS011;52163;52.212;-1.002;2023-03-23T10:48:15;15.60;;;2.50;;
62951;SDS011;52163;52.212;-1.002;2023-03-23T10:50:55;8.40;;;1.80;;
62951;SDS011;52163;52.212;-1.002;2023-03-23T10:53:29;11.40;;;2.20;;
62951;SDS011;52163;52.212;-1.002;2023-03-23T10:55:58;12.40;;;2.40;;
62951;SDS011;52163;52.212;-1.002;2023-03-23T10:58:29;8.40;;;2.20;;
62951;SDS011;52163;52.212;-1.002;2023-03-23T11:00:57;9.30;;;2.20;;
62951;SDS011;52163;52.212;-1.002;2023-03-23T11:03:38;8.40;;;2.10;;
62951;SDS011;52163;52.212;-1.002;2023-03-23T11:06:06;7.40;;;1.90;;
62951;SDS011;52163;52.212;-1.002;2023-03-23T11:11:27;8.80;;;2.10;;
62951;SDS011;52163;52.212;-1.002;2023-03-23T11:14:29;10.70;;;2.00;;
62951;SDS011;52163;52.212;-1.002;2023-03-23T11:16:55;8.90;;;2.00;;
62951;SDS011;52163;52.212;-1.002;2023-03-23T11:19:24;12.80;;;2.00;;
62951;SDS011;52163;52.212;-1.002;2023-03-23T11:24:33;9.90;;;2.20;;
62951;SDS011;52163;52.212;-1.002;2023-03-23T11:27:01;12.60;;;2.10;;
62951;SDS011;52163;52.212;-1.002;2023-03-23T11:29:32;15.20;;;2.60;;
62951;SDS011;52163;52.212;-1.002;2023-03-23T11:34:25;10.10;;;2.30;;
62951;SDS011;52163;52.212;-1.002;2023-03-23T11:37:00;8.70;;;2.70;;
62951;SDS011;52163;52.212;-1.002;2023-03-23T11:39:45;9.80;;;1.70;;
62951;SDS011;52163;52.212;-1.002;2023-03-23T11:42:34;6.30;;;1.50;;
62951;SDS011;52163;52.212;-1.002;2023-03-23T11:50:49;9.60;;;3.90;;
62951;SDS011;52163;52.212;-1.002;2023-03-23T11:56:01;8.70;;;1.50;;
62951;SDS011;52163;52.212;-1.002;2023-03-23T11:58:38;8.20;;;1.70;;
62951;SDS011;52163;52.212;-1.002;2023-03-23T12:01:32;7.00;;;1.80;;
62951;SDS011;52163;52.212;-1.002;2023-03-23T12:17:53;12.30;;;2.40;;
62951;SDS011;52163;52.212;-1.002;2023-03-23T12:23:40;10.10;;;2.10;;
62951;SDS011;52163;52.212;-1.002;2023-03-23T12:26:50;7.80;;;2.00;;
62951;SDS011;52163;52.212;-1.002;2023-03-23T12:29:05;8.50;;;2.10;;
62951;SDS011;52163;52.212;-1.002;2023-03-23T12:47:58;10.00;;;2.60;;
62951;SDS011;52163;52.212;-1.002;2023-03-23T12:59:00;13.40;;;2.50;;
62951;SDS011;52163;52.212;-1.002;2023-03-23T13:01:32;13.70;;;2.90;;
62951;SDS011;52163;52.212;-1.002;2023-03-23T13:06:45;15.40;;;2.80;;
62951;SDS011;52163;52.212;-1.002;2023-03-23T13:11:54;10.90;;;2.40;;
62951;SDS011;52163;52.212;-1.002;2023-03-23T13:22:28;8.40;;;1.90;;
62951;SDS011;52163;52.212;-1.002;2023-03-23T13:25:03;8.50;;;2.50;;
62951;SDS011;52163;52.212;-1.002;2023-03-23T13:27:38;11.50;;;2.60;;
62951;SDS011;52163;52.212;-1.002;2023-03-23T13:30:04;12.70;;;2.60;;
62951;SDS011;52163;52.212;-1.002;2023-03-23T13:32:42;12.90;;;2.80;;
62951;SDS011;52163;52.212;-1.002;2023-03-23T13:35:13;11.20;;;2.70;;
62951;SDS011;52163;52.212;-1.002;2023-03-23T13:37:46;10.70;;;3.10;;
62951;SDS011;52163;52.212;-1.002;2023-03-23T13:40:15;11.20;;;3.00;;
62951;SDS011;52163;52.212;-1.002;2023-03-23T13:42:54;10.70;;;2.70;;
62951;SDS011;52163;52.212;-1.002;2023-03-23T13:50:51;14.30;;;3.40;;
62951;SDS011;52163;52.212;-1.002;2023-03-23T13:53:30;13.70;;;2.70;;
62951;SDS011;52163;52.212;-1.002;2023-03-23T13:59:16;12.00;;;3.20;;
62951;SDS011;52163;52.212;-1.002;2023-03-23T14:01:54;12.50;;;2.90;;
62951;SDS011;52163;52.212;-1.002;2023-03-23T14:04:21;14.10;;;3.50;;
62951;SDS011;52163;52.212;-1.002;2023-03-23T14:06:49;15.90;;;2.80;;
62951;SDS011;52163;52.212;-1.002;2023-03-23T14:09:32;14.50;;;2.80;;
62951;SDS011;52163;52.212;-1.002;2023-03-23T14:12:06;16.80;;;3.00;;
62951;SDS011;52163;52.212;-1.002;2023-03-23T14:14:42;12.60;;;2.60;;
62951;SDS011;52163;52.212;-1.002;2023-03-23T14:17:15;9.10;;;2.70;;
62951;SDS011;52163;52.212;-1.002;2023-03-23T14:19:50;12.60;;;3.40;;
62951;SDS011;52163;52.212;-1.002;2023-03-23T14:22:39;10.20;;;2.60;;
62951;SDS011;52163;52.212;-1.002;2023-03-23T14:27:43;11.80;;;2.80;;
62951;SDS011;52163;52.212;-1.002;2023-03-23T14:30:13;18.30;;;3.30;;
62951;SDS011;52163;52.212;-1.002;2023-03-23T14:32:53;10.20;;;2.50;;
62951;SDS011;52163;52.212;-1.002;2023-03-23T14:35:29;11.40;;;3.00;;
62951;SDS011;52163;52.212;-1.002;2023-03-23T14:37:57;13.80;;;2.70;;
62951;SDS011;52163;52.212;-1.002;2023-03-23T14:40:25;11.80;;;3.00;;
62951;SDS011;52163;52.212;-1.002;2023-03-23T14:42:52;12.10;;;3.40;;
62951;SDS011;52163;52.212;-1.002;2023-03-23T14:45:20;15.40;;;3.50;;
62951;SDS011;52163;52.212;-1.002;2023-03-23T14:47:48;12.30;;;3.50;;
62951;SDS011;52163;52.212;-1.002;2023-03-23T14:50:27;14.10;;;3.80;;
62951;SDS011;52163;52.212;-1.002;2023-03-23T14:52:56;14.30;;;3.70;;
62951;SDS011;52163;52.212;-1.002;2023-03-23T14:55:27;13.10;;;3.10;;
62951;SDS011;52163;52.212;-1.002;2023-03-23T14:57:55;18.30;;;3.40;;
62951;SDS011;52163;52.212;-1.002;2023-03-23T15:00:33;14.60;;;3.50;;
62951;SDS011;52163;52.212;-1.002;2023-03-23T15:03:09;13.60;;;3.00;;
62951;SDS011;52163;52.212;-1.002;2023-03-23T15:05:40;12.40;;;2.90;;
62951;SDS011;52163;52.212;-1.002;2023-03-23T15:08:11;16.50;;;2.80;;
62951;SDS011;52163;52.212;-1.002;2023-03-23T15:11:11;16.70;;;3.00;;
62951;SDS011;52163;52.212;-1.002;2023-03-23T15:13:48;10.50;;;2.10;;
62951;SDS011;52163;52.212;-1.002;2023-03-23T15:16:24;10.40;;;2.40;;
62951;SDS011;52163;52.212;-1.002;2023-03-23T15:21:29;11.90;;;2.70;;
62951;SDS011;52163;52.212;-1.002;2023-03-23T15:24:00;14.50;;;3.30;;
62951;SDS011;52163;52.212;-1.002;2023-03-23T15:26:31;12.80;;;3.10;;
62951;SDS011;52163;52.212;-1.002;2023-03-23T15:29:18;11.10;;;2.90;;
62951;SDS011;52163;52.212;-1.002;2023-03-23T15:31:52;18.30;;;3.10;;
62951;SDS011;52163;52.212;-1.002;2023-03-23T15:34:29;14.70;;;2.70;;
62951;SDS011;52163;52.212;-1.002;2023-03-23T15:36:58;8.40;;;2.70;;
62951;SDS011;52163;52.212;-1.002;2023-03-23T15:39:28;11.50;;;2.20;;
62951;SDS011;52163;52.212;-1.002;2023-03-23T15:41:55;10.50;;;2.90;;
62951;SDS011;52163;52.212;-1.002;2023-03-23T15:44:27;13.50;;;3.00;;
62951;SDS011;52163;52.212;-1.002;2023-03-23T15:47:03;14.10;;;3.60;;
62951;SDS011;52163;52.212;-1.002;2023-03-23T15:49:29;15.30;;;2.90;;
62951;SDS011;52163;52.212;-1.002;2023-03-23T15:51:55;11.60;;;2.90;;
62951;SDS011;52163;52.212;-1.002;2023-03-23T15:54:21;9.90;;;2.70;;
62951;SDS011;52163;52.212;-1.002;2023-03-23T15:56:46;10.80;;;2.90;;
62951;SDS011;52163;52.212;-1.002;2023-03-23T15:59:12;10.00;;;2.60;;
62951;SDS011;52163;52.212;-1.002;2023-03-23T16:01:38;11.80;;;3.20;;
62951;SDS011;52163;52.212;-1.002;2023-03-23T16:06:32;9.70;;;2.20;;
62951;SDS011;52163;52.212;-1.002;2023-03-23T16:08:59;12.30;;;2.80;;
62951;SDS011;52163;52.212;-1.002;2023-03-23T16:11:26;11.50;;;2.70;;
62951;SDS011;52163;52.212;-1.002;2023-03-23T16:13:53;7.20;;;2.00;;
62951;SDS011;52163;52.212;-1.002;2023-03-23T16:16:23;10.60;;;3.10;;
62951;SDS011;52163;52.212;-1.002;2023-03-23T16:18:55;7.70;;;1.70;;
62951;SDS011;52163;52.212;-1.002;2023-03-23T16:21:20;12.80;;;2.60;;
62951;SDS011;52163;52.212;-1.002;2023-03-23T16:23:46;9.70;;;2.70;;
62951;SDS011;52163;52.212;-1.002;2023-03-23T16:26:13;14.10;;;2.40;;
62951;SDS011;52163;52.212;-1.002;2023-03-23T16:28:39;10.80;;;2.60;;
62951;SDS011;52163;52.212;-1.002;2023-03-23T16:31:05;8.80;;;2.60;;
62951;SDS011;52163;52.212;-1.002;2023-03-23T16:33:31;7.70;;;2.20;;